sensor_id;sensor_type;location;lat;lon;timestamp;pressure;altitude;pressure_sealevel;temperature;humidity
3176;BME280;1599;51.564;6.990;2023-11-22T00:00:22;102047.28;;;6.09;100.00
3176;BME280;1599;51.564;6.990;2023-11-22T00:02:48;102044.03;;;6.36;100.00
3176;BME280;1599;51.564;6.990;2023-11-22T00:05:17;102044.13;;;6.28;100.00
3176;BME280;1599;51.564;6.990;2023-11-22T00:07:43;102052.69;;;6.17;100.00
3176;BME280;1599;51.564;6.990;2023-11-22T00:10:09;102042.75;;;6.24;100.00
3176;BME280;1599;51.564;6.990;2023-11-22T00:12:37;102050.78;;;6.26;100.00
3176;BME280;1599;51.564;6.990;2023-11-22T00:15:09;102047.50;;;6.30;100.00
3176;BME280;1599;51.564;6.990;2023-11-22T00:17:37;102050.53;;;6.35;100.00
3176;BME280;1599;51.564;6.990;2023-11-22T00:20:03;102045.53;;;6.16;100.00
3176;BME280;1599;51.564;6.990;2023-11-22T00:22:34;102040.81;;;6.10;100.00
3176;BME280;1599;51.564;6.990;2023-11-22T00:25:01;102050.66;;;6.11;100.00
3176;BME280;1599;51.564;6.990;2023-11-22T00:27:30;102047.94;;;6.11;100.00
3176;BME280;1599;51.564;6.990;2023-11-22T00:30:06;102042.63;;;6.17;100.00
3176;BME280;1599;51.564;6.990;2023-11-22T00:32:32;102046.63;;;6.07;100.00
3176;BME280;1599;51.564;6.990;2023-11-22T00:34:58;102042.50;;;6.11;100.00
3176;BME280;1599;51.564;6.990;2023-11-22T00:37:24;102043.19;;;6.05;100.00
3176;BME280;1599;51.564;6.990;2023-11-22T00:39:56;102045.69;;;5.84;100.00
3176;BME280;1599;51.564;6.990;2023-11-22T00:42:27;102055.22;;;5.88;100.00
3176;BME280;1599;51.564;6.990;2023-11-22T00:44:59;102051.84;;;5.78;100.00
3176;BME280;1599;51.564;6.990;2023-11-22T00:47:34;102052.97;;;5.52;100.00
3176;BME280;1599;51.564;6.990;2023-11-22T00:50:06;102051.94;;;5.45;100.00
3176;BME280;1599;51.564;6.990;2023-11-22T00:52:34;102059.44;;;5.43;100.00
3176;BME280;1599;51.564;6.990;2023-11-22T00:55:10;102063.84;;;5.52;100.00
3176;BME280;1599;51.564;6.990;2023-11-22T00:57:42;102060.13;;;5.29;100.00
3176;BME280;1599;51.564;6.990;2023-11-22T01:00:09;102058.44;;;5.44;100.00
3176;BME280;1599;51.564;6.990;2023-11-22T01:02:36;102066.94;;;5.41;100.00
3176;BME280;1599;51.564;6.990;2023-11-22T01:05:18;102056.06;;;5.25;100.00
3176;BME280;1599;51.564;6.990;2023-11-22T01:08:01;102070.38;;;5.27;100.00
3176;BME280;1599;51.564;6.990;2023-11-22T01:10:32;102084.31;;;5.32;100.00
3176;BME280;1599;51.564;6.990;2023-11-22T01:13:05;102080.25;;;5.20;100.00
3176;BME280;1599;51.564;6.990;2023-11-22T01:15:39;102084.00;;;5.27;100.00
3176;BME280;1599;51.564;6.990;2023-11-22T01:18:08;102080.41;;;5.27;100.00
3176;BME280;1599;51.564;6.990;2023-11-22T01:20:34;102082.66;;;5.15;100.00
3176;BME280;1599;51.564;6.990;2023-11-22T01:23:00;102086.91;;;5.18;100.00
3176;BME280;1599;51.564;6.990;2023-11-22T01:25:26;102082.31;;;5.26;100.00
3176;BME280;1599;51.564;6.990;2023-11-22T01:27:53;102085.03;;;5.10;100.00
3176;BME280;1599;51.564;6.990;2023-11-22T01:30:19;102094.22;;;5.09;100.00
3176;BME280;1599;51.564;6.990;2023-11-22T01:32:45;102100.00;;;5.06;100.00
3176;BME280;1599;51.564;6.990;2023-11-22T01:35:11;102112.44;;;5.00;100.00
3176;BME280;1599;51.564;6.990;2023-11-22T01:37:37;102118.72;;;5.01;100.00
3176;BME280;1599;51.564;6.990;2023-11-22T01:40:03;102112.63;;;5.07;100.00
3176;BME280;1599;51.564;6.990;2023-11-22T01:42:30;102118.72;;;5.01;100.00
3176;BME280;1599;51.564;6.990;2023-11-22T01:44:56;102118.72;;;5.01;100.00
3176;BME280;1599;51.564;6.990;2023-11-22T01:47:22;102120.13;;;5.05;100.00
3176;BME280;1599;51.564;6.990;2023-11-22T01:49:48;102125.22;;;5.08;100.00
3176;BME280;1599;51.564;6.990;2023-11-22T01:52:16;102127.59;;;5.11;100.00
3176;BME280;1599;51.564;6.990;2023-11-22T01:54:42;102133.41;;;5.08;100.00
3176;BME280;1599;51.564;6.990;2023-11-22T01:57:11;102139.34;;;5.04;100.00
3176;BME280;1599;51.564;6.990;2023-11-22T01:59:38;102148.38;;;5.12;100.00
3176;BME280;1599;51.564;6.990;2023-11-22T02:02:04;102150.72;;;4.91;100.00
3176;BME280;1599;51.564;6.990;2023-11-22T02:04:33;102156.19;;;4.91;100.00
3176;BME280;1599;51.564;6.990;2023-11-22T02:06:59;102154.81;;;4.87;100.00
3176;BME280;1599;51.564;6.990;2023-11-22T02:09:25;102159.56;;;4.77;100.00
3176;BME280;1599;51.564;6.990;2023-11-22T02:11:51;102168.75;;;4.76;100.00
3176;BME280;1599;51.564;6.990;2023-11-22T02:14:17;102170.13;;;4.72;100.00
3176;BME280;1599;51.564;6.990;2023-11-22T02:16:43;102173.88;;;4.79;100.00
3176;BME280;1599;51.564;6.990;2023-11-22T02:19:15;102164.66;;;4.64;100.00
3176;BME280;1599;51.564;6.990;2023-11-22T02:21:43;102158.84;;;4.59;100.00
3176;BME280;1599;51.564;6.990;2023-11-22T02:24:10;102148.31;;;4.56;100.00
3176;BME280;1599;51.564;6.990;2023-11-22T02:26:36;102152.72;;;4.57;100.00
3176;BME280;1599;51.564;6.990;2023-11-22T02:29:03;102154.06;;;4.53;100.00
3176;BME280;1599;51.564;6.990;2023-11-22T02:31:32;102156.94;;;4.51;100.00
3176;BME280;1599;51.564;6.990;2023-11-22T02:33:59;102167.66;;;4.45;100.00
3176;BME280;1599;51.564;6.990;2023-11-22T02:36:25;102158.63;;;4.44;100.00
3176;BME280;1599;51.564;6.990;2023-11-22T02:38:52;102146.56;;;4.47;100.00
3176;BME280;1599;51.564;6.990;2023-11-22T02:41:18;102158.84;;;4.51;100.00
3176;BME280;1599;51.564;6.990;2023-11-22T02:43:44;102143.53;;;4.58;100.00
3176;BME280;1599;51.564;6.990;2023-11-22T02:46:11;102146.59;;;4.63;100.00
3176;BME280;1599;51.564;6.990;2023-11-22T02:48:37;102151.03;;;4.64;100.00
3176;BME280;1599;51.564;6.990;2023-11-22T02:51:03;102152.75;;;4.73;100.00
3176;BME280;1599;51.564;6.990;2023-11-22T02:53:32;102163.59;;;4.57;100.00
3176;BME280;1599;51.564;6.990;2023-11-22T02:56:01;102169.72;;;4.51;100.00
3176;BME280;1599;51.564;6.990;2023-11-22T02:58:30;102173.66;;;4.56;100.00
3176;BME280;1599;51.564;6.990;2023-11-22T03:00:56;102174.16;;;4.60;100.00
3176;BME280;1599;51.564;6.990;2023-11-22T03:03:23;102181.63;;;4.58;100.00
3176;BME280;1599;51.564;6.990;2023-11-22T03:05:50;102188.91;;;4.49;100.00
3176;BME280;1599;51.564;6.990;2023-11-22T03:08:21;102183.59;;;4.31;100.00
3176;BME280;1599;51.564;6.990;2023-11-22T03:10:48;102188.34;;;4.29;100.00
3176;BME280;1599;51.564;6.990;2023-11-22T03:13:13;102205.84;;;4.27;100.00
3176;BME280;1599;51.564;6.990;2023-11-22T03:15:39;102195.81;;;4.27;100.00
3176;BME280;1599;51.564;6.990;2023-11-22T03:18:05;102201.59;;;4.24;100.00
3176;BME280;1599;51.564;6.990;2023-11-22T03:20:33;102201.31;;;4.44;100.00
3176;BME280;1599;51.564;6.990;2023-11-22T03:23:04;102207.66;;;4.18;100.00
3176;BME280;1599;51.564;6.990;2023-11-22T03:25:30;102216.50;;;4.20;100.00
3176;BME280;1599;51.564;6.990;2023-11-22T03:27:56;102217.50;;;4.11;100.00
3176;BME280;1599;51.564;6.990;2023-11-22T03:30:25;102207.16;;;4.23;100.00
3176;BME280;1599;51.564;6.990;2023-11-22T03:32:51;102203.94;;;4.19;100.00
3176;BME280;1599;51.564;6.990;2023-11-22T03:35:17;102212.81;;;4.29;100.00
3176;BME280;1599;51.564;6.990;2023-11-22T03:37:49;102207.63;;;4.10;100.00
3176;BME280;1599;51.564;6.990;2023-11-22T03:40:23;102212.91;;;4.12;100.00
3176;BME280;1599;51.564;6.990;2023-11-22T03:42:54;102216.41;;;4.04;100.00
3176;BME280;1599;51.564;6.990;2023-11-22T03:45:25;102212.50;;;3.99;100.00
3176;BME280;1599;51.564;6.990;2023-11-22T03:47:51;102219.84;;;4.06;100.00
3176;BME280;1599;51.564;6.990;2023-11-22T03:50:17;102226.97;;;4.07;100.00
3176;BME280;1599;51.564;6.990;2023-11-22T03:52:48;102230.00;;;4.04;100.00
3176;BME280;1599;51.564;6.990;2023-11-22T03:55:17;102234.72;;;3.94;100.00
3176;BME280;1599;51.564;6.990;2023-11-22T03:57:46;102234.81;;;4.10;100.00
3176;BME280;1599;51.564;6.990;2023-11-22T04:00:15;102237.22;;;4.13;100.00
3176;BME280;1599;51.564;6.990;2023-11-22T04:02:52;102236.47;;;4.03;100.00
3176;BME280;1599;51.564;6.990;2023-11-22T04:05:27;102244.09;;;4.00;100.00
3176;BME280;1599;51.564;6.990;2023-11-22T04:08:04;102257.13;;;3.88;100.00
3176;BME280;1599;51.564;6.990;2023-11-22T04:10:34;102262.50;;;3.80;100.00
3176;BME280;1599;51.564;6.990;2023-11-22T04:13:00;102264.19;;;3.81;100.00
3176;BME280;1599;51.564;6.990;2023-11-22T04:15:26;102278.34;;;3.67;100.00
3176;BME280;1599;51.564;6.990;2023-11-22T04:17:54;102275.38;;;3.78;100.00
3176;BME280;1599;51.564;6.990;2023-11-22T04:20:20;102277.69;;;3.73;100.00
3176;BME280;1599;51.564;6.990;2023-11-22T04:22:49;102278.44;;;3.75;100.00
3176;BME280;1599;51.564;6.990;2023-11-22T04:25:19;102279.72;;;3.71;100.00
3176;BME280;1599;51.564;6.990;2023-11-22T04:27:49;102275.72;;;3.75;100.00
3176;BME280;1599;51.564;6.990;2023-11-22T04:30:18;102280.38;;;3.65;100.00
3176;BME280;1599;51.564;6.990;2023-11-22T04:32:44;102284.56;;;3.42;100.00
3176;BME280;1599;51.564;6.990;2023-11-22T04:35:10;102280.63;;;3.36;100.00
3176;BME280;1599;51.564;6.990;2023-11-22T04:37:39;102287.63;;;3.39;100.00
3176;BME280;1599;51.564;6.990;2023-11-22T04:40:05;102288.06;;;3.34;100.00
3176;BME280;1599;51.564;6.990;2023-11-22T04:42:35;102276.97;;;3.28;100.00
3176;BME280;1599;51.564;6.990;2023-11-22T04:45:03;102279.00;;;3.43;100.00
3176;BME280;1599;51.564;6.990;2023-11-22T04:47:32;102276.34;;;3.34;100.00
3176;BME280;1599;51.564;6.990;2023-11-22T04:49:58;102280.69;;;3.27;100.00
3176;BME280;1599;51.564;6.990;2023-11-22T04:52:25;102291.03;;;3.23;100.00
3176;BME280;1599;51.564;6.990;2023-11-22T04:54:50;102286.75;;;3.21;100.00
3176;BME280;1599;51.564;6.990;2023-11-22T04:57:16;102287.69;;;3.29;100.00
3176;BME280;1599;51.564;6.990;2023-11-22T04:59:42;102288.28;;;3.05;100.00
3176;BME280;1599;51.564;6.990;2023-11-22T05:02:14;102300.59;;;3.00;100.00
3176;BME280;1599;51.564;6.990;2023-11-22T05:04:42;102308.69;;;2.92;100.00
3176;BME280;1599;51.564;6.990;2023-11-22T05:07:10;102309.84;;;2.89;100.00
3176;BME280;1599;51.564;6.990;2023-11-22T05:09:36;102301.22;;;2.94;100.00
3176;BME280;1599;51.564;6.990;2023-11-22T05:12:03;102301.75;;;2.97;100.00
3176;BME280;1599;51.564;6.990;2023-11-22T05:14:29;102297.31;;;2.79;100.00
3176;BME280;1599;51.564;6.990;2023-11-22T05:16:57;102311.63;;;2.71;100.00
3176;BME280;1599;51.564;6.990;2023-11-22T05:19:23;102307.50;;;2.67;100.00
3176;BME280;1599;51.564;6.990;2023-11-22T05:21:54;102305.78;;;2.66;100.00
3176;BME280;1599;51.564;6.990;2023-11-22T05:24:23;102314.50;;;2.70;100.00
3176;BME280;1599;51.564;6.990;2023-11-22T05:26:49;102313.94;;;2.66;100.00
3176;BME280;1599;51.564;6.990;2023-11-22T05:29:15;102324.09;;;2.64;100.00
3176;BME280;1599;51.564;6.990;2023-11-22T05:31:41;102323.34;;;2.72;100.00
3176;BME280;1599;51.564;6.990;2023-11-22T05:34:07;102313.94;;;2.66;100.00
3176;BME280;1599;51.564;6.990;2023-11-22T05:36:33;102325.41;;;2.60;100.00
3176;BME280;1599;51.564;6.990;2023-11-22T05:38:59;102335.56;;;2.58;100.00
3176;BME280;1599;51.564;6.990;2023-11-22T05:41:26;102331.69;;;2.51;100.00
3176;BME280;1599;51.564;6.990;2023-11-22T05:43:52;102338.56;;;2.55;100.00
3176;BME280;1599;51.564;6.990;2023-11-22T05:46:21;102334.00;;;2.46;100.00
3176;BME280;1599;51.564;6.990;2023-11-22T05:48:51;102324.59;;;2.40;100.00
3176;BME280;1599;51.564;6.990;2023-11-22T05:51:17;102337.91;;;2.34;100.00
3176;BME280;1599;51.564;6.990;2023-11-22T05:53:43;102342.94;;;2.29;100.00
3176;BME280;1599;51.564;6.990;2023-11-22T05:56:09;102348.63;;;2.26;100.00
3176;BME280;1599;51.564;6.990;2023-11-22T05:58:36;102337.63;;;2.37;100.00
3176;BME280;1599;51.564;6.990;2023-11-22T06:01:13;102330.31;;;2.37;100.00
3176;BME280;1599;51.564;6.990;2023-11-22T06:03:39;102339.75;;;2.33;100.00
3176;BME280;1599;51.564;6.990;2023-11-22T06:06:06;102336.34;;;2.31;100.00
3176;BME280;1599;51.564;6.990;2023-11-22T06:08:32;102335.09;;;2.26;100.00
3176;BME280;1599;51.564;6.990;2023-11-22T06:10:58;102330.22;;;2.29;100.00
3176;BME280;1599;51.564;6.990;2023-11-22T06:13:26;102335.09;;;2.26;100.00
3176;BME280;1599;51.564;6.990;2023-11-22T06:15:52;102338.41;;;2.10;100.00
3176;BME280;1599;51.564;6.990;2023-11-22T06:18:21;102341.28;;;1.90;100.00
3176;BME280;1599;51.564;6.990;2023-11-22T06:20:59;102351.00;;;1.82;100.00
3176;BME280;1599;51.564;6.990;2023-11-22T06:23:43;102349.44;;;1.70;100.00
3176;BME280;1599;51.564;6.990;2023-11-22T06:26:26;102342.44;;;1.58;100.00
3176;BME280;1599;51.564;6.990;2023-11-22T06:28:52;102357.84;;;1.48;100.00
3176;BME280;1599;51.564;6.990;2023-11-22T06:31:18;102361.09;;;1.42;100.00
3176;BME280;1599;51.564;6.990;2023-11-22T06:33:44;102358.94;;;1.36;100.00
3176;BME280;1599;51.564;6.990;2023-11-22T06:36:10;102364.66;;;1.33;100.00
3176;BME280;1599;51.564;6.990;2023-11-22T06:38:49;102374.06;;;1.29;100.00
3176;BME280;1599;51.564;6.990;2023-11-22T06:41:20;102378.31;;;1.22;100.00
3176;BME280;1599;51.564;6.990;2023-11-22T06:43:47;102380.28;;;1.20;100.00
3176;BME280;1599;51.564;6.990;2023-11-22T06:46:13;102373.88;;;1.21;100.00
3176;BME280;1599;51.564;6.990;2023-11-22T06:48:44;102374.00;;;1.10;100.00
3176;BME280;1599;51.564;6.990;2023-11-22T06:51:10;102371.19;;;1.11;100.00
3176;BME280;1599;51.564;6.990;2023-11-22T06:53:36;102364.91;;;1.11;100.00
3176;BME280;1599;51.564;6.990;2023-11-22T06:56:02;102374.31;;;1.07;100.00
3176;BME280;1599;51.564;6.990;2023-11-22T06:58:29;102376.53;;;1.02;100.00
3176;BME280;1599;51.564;6.990;2023-11-22T07:00:55;102373.72;;;1.03;100.00
3176;BME280;1599;51.564;6.990;2023-11-22T07:03:21;102381.69;;;1.05;100.00
3176;BME280;1599;51.564;6.990;2023-11-22T07:05:47;102388.81;;;1.06;100.00
3176;BME280;1599;51.564;6.990;2023-11-22T07:08:12;102398.66;;;1.07;100.00
3176;BME280;1599;51.564;6.990;2023-11-22T07:10:39;102396.22;;;1.04;100.00
3176;BME280;1599;51.564;6.990;2023-11-22T07:13:04;102403.31;;;1.05;100.00
3176;BME280;1599;51.564;6.990;2023-11-22T07:15:30;102411.72;;;1.02;100.00
3176;BME280;1599;51.564;6.990;2023-11-22T07:17:56;102415.44;;;1.01;100.00
3176;BME280;1599;51.564;6.990;2023-11-22T07:20:22;102418.13;;;1.01;100.00
3176;BME280;1599;51.564;6.990;2023-11-22T07:22:49;102416.16;;;1.03;100.00
3176;BME280;1599;51.564;6.990;2023-11-22T07:25:21;102426.81;;;1.04;100.00
3176;BME280;1599;51.564;6.990;2023-11-22T07:27:51;102438.91;;;1.00;100.00
3176;BME280;1599;51.564;6.990;2023-11-22T07:30:17;102436.25;;;1.10;100.00
3176;BME280;1599;51.564;6.990;2023-11-22T07:32:50;102425.84;;;1.15;100.00
3176;BME280;1599;51.564;6.990;2023-11-22T07:35:17;102423.31;;;1.23;100.00
3176;BME280;1599;51.564;6.990;2023-11-22T07:37:46;102424.78;;;1.27;100.00
3176;BME280;1599;51.564;6.990;2023-11-22T07:40:14;102429.91;;;1.30;100.00
3176;BME280;1599;51.564;6.990;2023-11-22T07:42:41;102426.78;;;1.35;100.00
3176;BME280;1599;51.564;6.990;2023-11-22T07:45:08;102428.34;;;1.37;100.00
3176;BME280;1599;51.564;6.990;2023-11-22T07:47:37;102428.78;;;1.42;100.00
3176;BME280;1599;51.564;6.990;2023-11-22T07:50:10;102430.09;;;1.48;100.00
3176;BME280;1599;51.564;6.990;2023-11-22T07:52:39;102417.97;;;1.52;100.00
3176;BME280;1599;51.564;6.990;2023-11-22T07:55:07;102417.16;;;1.61;100.00
3176;BME280;1599;51.564;6.990;2023-11-22T07:57:37;102397.63;;;1.76;100.00
3176;BME280;1599;51.564;6.990;2023-11-22T08:00:05;102378.94;;;1.93;100.00
3176;BME280;1599;51.564;6.990;2023-11-22T08:02:34;102379.19;;;2.09;100.00
3176;BME280;1599;51.564;6.990;2023-11-22T08:05:09;102379.16;;;2.28;100.00
3176;BME280;1599;51.564;6.990;2023-11-22T08:07:36;102376.28;;;2.39;100.00
3176;BME280;1599;51.564;6.990;2023-11-22T08:10:08;102379.94;;;2.57;100.00
3176;BME280;1599;51.564;6.990;2023-11-22T08:12:45;102386.19;;;2.67;100.00
3176;BME280;1599;51.564;6.990;2023-11-22T08:15:13;102386.72;;;2.80;100.00
3176;BME280;1599;51.564;6.990;2023-11-22T08:17:40;102395.56;;;2.82;100.00
3176;BME280;1599;51.564;6.990;2023-11-22T08:20:08;102396.13;;;2.86;100.00
3176;BME280;1599;51.564;6.990;2023-11-22T08:22:41;102402.00;;;3.08;100.00
3176;BME280;1599;51.564;6.990;2023-11-22T08:25:08;102394.53;;;3.20;100.00
3176;BME280;1599;51.564;6.990;2023-11-22T08:27:34;102407.94;;;3.22;100.00
3176;BME280;1599;51.564;6.990;2023-11-22T08:30:00;102418.22;;;3.28;100.00
3176;BME280;1599;51.564;6.990;2023-11-22T08:32:33;102422.72;;;3.37;100.00
3176;BME280;1599;51.564;6.990;2023-11-22T08:34:58;102434.72;;;3.34;100.00
3176;BME280;1599;51.564;6.990;2023-11-22T08:37:25;102453.25;;;3.48;100.00
3176;BME280;1599;51.564;6.990;2023-11-22T08:39:50;102463.94;;;3.50;100.00
3176;BME280;1599;51.564;6.990;2023-11-22T08:42:16;102465.78;;;3.59;100.00
3176;BME280;1599;51.564;6.990;2023-11-22T08:44:42;102480.13;;;3.51;100.00
3176;BME280;1599;51.564;6.990;2023-11-22T08:47:08;102496.16;;;3.45;100.00
3176;BME280;1599;51.564;6.990;2023-11-22T08:49:34;102511.31;;;3.74;100.00
3176;BME280;1599;51.564;6.990;2023-11-22T08:52:00;102510.06;;;3.87;100.00
3176;BME280;1599;51.564;6.990;2023-11-22T08:54:28;102513.97;;;4.02;100.00
3176;BME280;1599;51.564;6.990;2023-11-22T08:56:55;102514.31;;;4.16;100.00
3176;BME280;1599;51.564;6.990;2023-11-22T08:59:25;102501.25;;;4.38;100.00
3176;BME280;1599;51.564;6.990;2023-11-22T09:01:50;102475.44;;;4.42;100.00
3176;BME280;1599;51.564;6.990;2023-11-22T09:04:16;102472.47;;;4.78;100.00
3176;BME280;1599;51.564;6.990;2023-11-22T09:06:44;102472.47;;;5.04;100.00
3176;BME280;1599;51.564;6.990;2023-11-22T09:09:10;102459.13;;;5.19;100.00
3176;BME280;1599;51.564;6.990;2023-11-22T09:11:41;102456.53;;;5.59;100.00
3176;BME280;1599;51.564;6.990;2023-11-22T09:14:07;102462.56;;;5.79;100.00
3176;BME280;1599;51.564;6.990;2023-11-22T09:16:38;102454.44;;;6.03;100.00
3176;BME280;1599;51.564;6.990;2023-11-22T09:19:05;102450.06;;;6.10;100.00
3176;BME280;1599;51.564;6.990;2023-11-22T09:21:34;102466.41;;;6.26;100.00
3176;BME280;1599;51.564;6.990;2023-11-22T09:24:01;102469.84;;;6.28;100.00
3176;BME280;1599;51.564;6.990;2023-11-22T09:26:27;102461.66;;;6.20;100.00
3176;BME280;1599;51.564;6.990;2023-11-22T09:28:53;102451.75;;;6.11;100.00
3176;BME280;1599;51.564;6.990;2023-11-22T09:31:19;102444.22;;;5.97;100.00
3176;BME280;1599;51.564;6.990;2023-11-22T09:33:46;102443.84;;;5.84;100.00
3176;BME280;1599;51.564;6.990;2023-11-22T09:36:15;102447.91;;;5.80;100.00
3176;BME280;1599;51.564;6.990;2023-11-22T09:38:41;102451.00;;;5.85;100.00
3176;BME280;1599;51.564;6.990;2023-11-22T09:41:13;102446.56;;;5.84;100.00
3176;BME280;1599;51.564;6.990;2023-11-22T09:43:50;102457.81;;;5.81;100.00
3176;BME280;1599;51.564;6.990;2023-11-22T09:46:33;102459.53;;;5.90;100.00
3176;BME280;1599;51.564;6.990;2023-11-22T09:49:09;102463.84;;;5.58;100.00
3176;BME280;1599;51.564;6.990;2023-11-22T09:51:41;102466.63;;;5.67;100.00
3176;BME280;1599;51.564;6.990;2023-11-22T09:54:09;102468.03;;;5.79;100.00
3176;BME280;1599;51.564;6.990;2023-11-22T09:56:52;102466.72;;;5.91;100.00
3176;BME280;1599;51.564;6.990;2023-11-22T09:59:33;102456.50;;;6.01;100.00
3176;BME280;1599;51.564;6.990;2023-11-22T10:02:18;102465.97;;;5.73;100.00
3176;BME280;1599;51.564;6.990;2023-11-22T10:04:53;102472.38;;;5.63;100.00
3176;BME280;1599;51.564;6.990;2023-11-22T10:07:31;102462.53;;;5.63;100.00
3176;BME280;1599;51.564;6.990;2023-11-22T10:10:02;102460.81;;;5.61;100.00
3176;BME280;1599;51.564;6.990;2023-11-22T10:12:31;102467.06;;;5.88;100.00
3176;BME280;1599;51.564;6.990;2023-11-22T10:15:24;102465.38;;;6.03;100.00
3176;BME280;1599;51.564;6.990;2023-11-22T10:17:59;102465.72;;;6.16;100.00
3176;BME280;1599;51.564;6.990;2023-11-22T10:20:51;102472.25;;;6.23;100.00
3176;BME280;1599;51.564;6.990;2023-11-22T10:23:22;102462.00;;;6.25;100.00
3176;BME280;1599;51.564;6.990;2023-11-22T10:26:00;102462.31;;;5.56;100.00
3176;BME280;1599;51.564;6.990;2023-11-22T10:28:29;102464.13;;;5.89;100.00
3176;BME280;1599;51.564;6.990;2023-11-22T10:30:55;102469.38;;;5.83;100.00
3176;BME280;1599;51.564;6.990;2023-11-22T10:33:21;102467.25;;;5.94;100.00
3176;BME280;1599;51.564;6.990;2023-11-22T10:35:51;102465.31;;;5.87;100.00
3176;BME280;1599;51.564;6.990;2023-11-22T10:38:19;102473.13;;;5.82;100.00
3176;BME280;1599;51.564;6.990;2023-11-22T10:40:46;102469.13;;;6.02;100.00
3176;BME280;1599;51.564;6.990;2023-11-22T10:43:17;102462.19;;;5.66;100.00
3176;BME280;1599;51.564;6.990;2023-11-22T10:45:44;102458.03;;;5.53;100.00
3176;BME280;1599;51.564;6.990;2023-11-22T10:48:21;102449.50;;;5.48;100.00
3176;BME280;1599;51.564;6.990;2023-11-22T10:50:55;102452.22;;;5.40;100.00
3176;BME280;1599;51.564;6.990;2023-11-22T10:53:32;102451.22;;;5.49;100.00
3176;BME280;1599;51.564;6.990;2023-11-22T10:56:15;102451.63;;;5.63;100.00
3176;BME280;1599;51.564;6.990;2023-11-22T10:58:56;102445.44;;;5.94;100.00
3176;BME280;1599;51.564;6.990;2023-11-22T11:01:25;102432.59;;;5.87;100.00
3176;BME280;1599;51.564;6.990;2023-11-22T11:04:09;102438.09;;;6.03;100.00
3176;BME280;1599;51.564;6.990;2023-11-22T11:06:37;102427.19;;;6.35;100.00
3176;BME280;1599;51.564;6.990;2023-11-22T11:09:05;102429.91;;;6.59;100.00
3176;BME280;1599;51.564;6.990;2023-11-22T11:11:33;102421.16;;;6.80;100.00
3176;BME280;1599;51.564;6.990;2023-11-22T11:14:02;102418.56;;;6.95;100.00
3176;BME280;1599;51.564;6.990;2023-11-22T11:16:30;102415.47;;;7.06;100.00
3176;BME280;1599;51.564;6.990;2023-11-22T11:18:59;102407.50;;;6.88;94.13
3176;BME280;1599;51.564;6.990;2023-11-22T11:21:26;102401.88;;;6.65;92.75
3176;BME280;1599;51.564;6.990;2023-11-22T11:23:55;102412.59;;;6.83;92.21
3176;BME280;1599;51.564;6.990;2023-11-22T11:26:28;102412.41;;;7.01;93.14
3176;BME280;1599;51.564;6.990;2023-11-22T11:28:54;102423.28;;;7.17;94.09
3176;BME280;1599;51.564;6.990;2023-11-22T11:31:21;102424.59;;;7.29;95.00
3176;BME280;1599;51.564;6.990;2023-11-22T11:36:31;102425.19;;;7.47;93.74
3176;BME280;1599;51.564;6.990;2023-11-22T11:39:03;102430.56;;;7.63;90.10
3176;BME280;1599;51.564;6.990;2023-11-22T11:41:32;102445.06;;;7.33;85.68
3176;BME280;1599;51.564;6.990;2023-11-22T11:44:01;102447.34;;;7.60;83.43
3176;BME280;1599;51.564;6.990;2023-11-22T11:46:29;102432.75;;;7.68;83.80
3176;BME280;1599;51.564;6.990;2023-11-22T11:48:56;102429.13;;;7.75;84.00
3176;BME280;1599;51.564;6.990;2023-11-22T11:51:27;102433.47;;;7.62;82.34
3176;BME280;1599;51.564;6.990;2023-11-22T11:53:55;102418.19;;;7.75;82.52
3176;BME280;1599;51.564;6.990;2023-11-22T11:56:21;102399.69;;;7.77;83.85
3176;BME280;1599;51.564;6.990;2023-11-22T11:58:49;102383.34;;;7.69;83.41
3176;BME280;1599;51.564;6.990;2023-11-22T12:01:17;102369.78;;;7.53;83.26
3176;BME280;1599;51.564;6.990;2023-11-22T12:03:45;102341.56;;;7.30;85.49
3176;BME280;1599;51.564;6.990;2023-11-22T12:06:18;102331.91;;;7.11;85.25
3176;BME280;1599;51.564;6.990;2023-11-22T12:08:46;102326.66;;;7.02;85.96
3176;BME280;1599;51.564;6.990;2023-11-22T12:11:14;102313.31;;;6.68;87.66
3176;BME280;1599;51.564;6.990;2023-11-22T12:13:41;102297.47;;;6.55;89.10
3176;BME280;1599;51.564;6.990;2023-11-22T12:16:15;102298.59;;;6.30;93.50
3176;BME280;1599;51.564;6.990;2023-11-22T12:18:47;102298.94;;;6.27;93.71
3176;BME280;1599;51.564;6.990;2023-11-22T12:21:14;102284.28;;;6.12;95.44
3176;BME280;1599;51.564;6.990;2023-11-22T12:23:42;102283.22;;;6.21;95.63
3176;BME280;1599;51.564;6.990;2023-11-22T12:26:20;102285.63;;;6.16;96.29
3176;BME280;1599;51.564;6.990;2023-11-22T12:28:48;102283.56;;;6.18;97.42
3176;BME280;1599;51.564;6.990;2023-11-22T12:31:15;102273.34;;;6.28;96.03
3176;BME280;1599;51.564;6.990;2023-11-22T12:33:42;102277.09;;;6.27;96.07
3176;BME280;1599;51.564;6.990;2023-11-22T12:36:10;102277.59;;;6.31;95.10
3176;BME280;1599;51.564;6.990;2023-11-22T12:38:36;102278.81;;;6.28;97.64
3176;BME280;1599;51.564;6.990;2023-11-22T12:41:05;102279.97;;;6.34;90.21
3176;BME280;1599;51.564;6.990;2023-11-22T12:43:35;102275.03;;;6.21;89.95
3176;BME280;1599;51.564;6.990;2023-11-22T12:46:05;102283.22;;;6.21;88.39
3176;BME280;1599;51.564;6.990;2023-11-22T12:48:41;102291.72;;;6.34;87.77
3176;BME280;1599;51.564;6.990;2023-11-22T12:51:17;102292.44;;;6.28;87.32
3176;BME280;1599;51.564;6.990;2023-11-22T12:53:47;102291.75;;;6.26;88.48
3176;BME280;1599;51.564;6.990;2023-11-22T12:56:15;102283.53;;;6.34;87.84
3176;BME280;1599;51.564;6.990;2023-11-22T12:58:42;102286.16;;;6.19;87.75
3176;BME280;1599;51.564;6.990;2023-11-22T13:01:07;102285.97;;;6.13;88.76
3176;BME280;1599;51.564;6.990;2023-11-22T13:03:33;102288.38;;;6.16;88.18
3176;BME280;1599;51.564;6.990;2023-11-22T13:06:13;102274.69;;;6.32;88.40
3176;BME280;1599;51.564;6.990;2023-11-22T13:08:45;102262.38;;;6.36;88.79
3176;BME280;1599;51.564;6.990;2023-11-22T13:11:11;102252.81;;;6.48;88.52
3176;BME280;1599;51.564;6.990;2023-11-22T13:13:37;102252.47;;;6.51;89.12
3176;BME280;1599;51.564;6.990;2023-11-22T13:16:04;102257.16;;;6.65;90.59
3176;BME280;1599;51.564;6.990;2023-11-22T13:18:35;102281.00;;;6.79;89.44
3176;BME280;1599;51.564;6.990;2023-11-22T13:21:03;102286.44;;;6.88;88.68
3176;BME280;1599;51.564;6.990;2023-11-22T13:23:30;102282.97;;;6.94;89.91